createdAt,value
2018-09-09T00:00:26.317Z,97.60
2018-09-09T00:02:54.015Z,97.70
2018-09-09T00:05:21.686Z,97.50
2018-09-09T00:07:49.369Z,97.60
2018-09-09T00:10:17.133Z,97.70
2018-09-09T00:12:44.858Z,97.80
2018-09-09T00:15:12.522Z,97.70
2018-09-09T00:17:40.314Z,98.00
2018-09-09T00:20:08.017Z,98.10
2018-09-09T00:22:35.717Z,98.00
2018-09-09T00:25:03.478Z,98.00
2018-09-09T00:27:31.205Z,98.20
2018-09-09T00:29:58.861Z,98.10
2018-09-09T00:32:26.593Z,98.20
2018-09-09T00:34:54.417Z,98.50
2018-09-09T00:37:22.092Z,98.50
2018-09-09T00:39:50.223Z,98.60
2018-09-09T00:42:18.098Z,98.60
2018-09-09T00:44:45.773Z,98.80
2018-09-09T00:47:13.437Z,98.60
2018-09-09T00:49:47.260Z,98.80
2018-09-09T00:52:20.606Z,98.80
2018-09-09T00:54:48.778Z,98.90
2018-09-09T00:57:17.617Z,98.70
2018-09-09T00:59:45.305Z,99.00
2018-09-09T01:02:13.189Z,98.80
2018-09-09T01:04:40.884Z,98.80
2018-09-09T01:07:08.537Z,98.80
2018-09-09T01:09:36.293Z,98.80
2018-09-09T01:12:04.517Z,99.00
2018-09-09T01:14:33.017Z,98.60
2018-09-09T01:17:00.674Z,98.70
2018-09-09T01:19:28.418Z,98.80
2018-09-09T01:21:56.105Z,98.90
2018-09-09T01:24:24.193Z,98.90
2018-09-09T01:26:52.142Z,98.90
2018-09-09T01:29:19.881Z,99.00
2018-09-09T01:31:47.662Z,99.00
2018-09-09T01:34:15.345Z,99.00
2018-09-09T01:36:43.193Z,99.00
2018-09-09T01:39:10.917Z,99.00
2018-09-09T01:41:39.257Z,99.10
2018-09-09T01:44:07.042Z,99.20
2018-09-09T01:46:34.705Z,99.00
2018-09-09T01:49:02.990Z,99.10
2018-09-09T01:51:30.669Z,99.10
2018-09-09T01:53:58.389Z,99.20
2018-09-09T01:56:26.070Z,99.30
2018-09-09T01:58:54.009Z,99.50
2018-09-09T02:01:21.698Z,99.50
2018-09-09T02:03:49.382Z,99.60
2018-09-09T02:06:17.326Z,99.60
2018-09-09T02:08:45.117Z,99.60
2018-09-09T02:11:14.125Z,99.60
2018-09-09T02:13:41.873Z,99.70
2018-09-09T02:16:09.565Z,99.60
2018-09-09T02:18:37.246Z,99.50
2018-09-09T02:21:04.942Z,99.50
2018-09-09T02:23:32.593Z,99.40
2018-09-09T02:26:00.409Z,99.30
2018-09-09T02:28:28.094Z,99.40
2018-09-09T02:30:55.806Z,99.20
2018-09-09T02:33:23.478Z,99.10
2018-09-09T02:35:51.158Z,99.10
2018-09-09T02:38:18.829Z,99.30
2018-09-09T02:40:46.546Z,99.20
2018-09-09T02:43:14.209Z,99.10
2018-09-09T02:45:41.891Z,99.10
2018-09-09T02:48:09.561Z,99.10
2018-09-09T02:50:40.157Z,99.30
2018-09-09T02:53:07.817Z,99.50
2018-09-09T02:55:40.034Z,99.40
2018-09-09T02:58:30.737Z,99.60
2018-09-09T03:00:58.418Z,99.60
2018-09-09T03:03:26.262Z,99.70
2018-09-09T03:05:54.577Z,99.60
2018-09-09T03:08:22.234Z,99.70
2018-09-09T03:10:54.432Z,99.80
2018-09-09T03:13:22.086Z,99.70
2018-09-09T03:15:49.798Z,99.70
2018-09-09T03:18:17.462Z,99.80
2018-09-09T03:20:45.186Z,99.90
2018-09-09T03:23:12.837Z,99.80
2018-09-09T03:25:41.290Z,99.70
2018-09-09T03:28:08.973Z,99.90
2018-09-09T03:30:36.742Z,99.90
2018-09-09T03:33:06.330Z,99.90
2018-09-09T03:35:34.038Z,99.90
2018-09-09T03:38:01.697Z,99.90
2018-09-09T03:40:30.070Z,99.90
2018-09-09T03:42:57.910Z,99.80
2018-09-09T03:45:25.601Z,99.70
2018-09-09T03:47:57.157Z,99.60
2018-09-09T03:50:24.902Z,99.60
2018-09-09T03:52:52.570Z,99.60
2018-09-09T03:55:20.265Z,99.60
2018-09-09T03:57:48.114Z,99.60
2018-09-09T04:00:15.818Z,99.50
2018-09-09T04:02:43.506Z,99.40
2018-09-09T04:05:11.210Z,99.50
2018-09-09T04:07:39.071Z,99.30
2018-09-09T04:10:06.858Z,99.40
2018-09-09T04:12:38.458Z,99.40
2018-09-09T04:15:06.258Z,99.50
2018-09-09T04:17:34.208Z,99.50
2018-09-09T04:20:01.946Z,99.40
2018-09-09T04:22:32.188Z,99.30
2018-09-09T04:25:03.290Z,99.30
2018-09-09T04:27:30.966Z,99.40
2018-09-09T04:29:59.313Z,99.30
2018-09-09T04:32:27.241Z,99.50
2018-09-09T04:34:55.846Z,99.50
2018-09-09T04:37:23.649Z,99.70
2018-09-09T04:39:52.447Z,99.80
2018-09-09T04:42:20.870Z,99.80
2018-09-09T04:44:49.527Z,99.90
2018-09-09T04:47:19.214Z,99.90
2018-09-09T04:49:48.232Z,99.90
2018-09-09T04:52:17.809Z,99.90
2018-09-09T04:54:46.669Z,99.90
2018-09-09T04:57:14.422Z,99.90
2018-09-09T04:59:42.670Z,99.90
2018-09-09T05:02:11.060Z,99.90
2018-09-09T05:04:38.718Z,99.90
2018-09-09T05:07:08.118Z,99.90
2018-09-09T05:09:35.825Z,99.90
2018-09-09T05:12:03.525Z,99.90
2018-09-09T05:14:32.081Z,99.90
2018-09-09T05:16:59.877Z,99.90
2018-09-09T05:19:30.692Z,99.90
2018-09-09T05:22:00.454Z,99.90
2018-09-09T05:24:29.400Z,99.90
2018-09-09T05:26:57.178Z,99.90
2018-09-09T05:29:24.847Z,99.90
2018-09-09T05:31:56.933Z,99.80
2018-09-09T05:34:26.075Z,99.90
2018-09-09T05:36:53.922Z,99.60
2018-09-09T05:39:21.573Z,99.40
2018-09-09T05:41:49.278Z,99.40
2018-09-09T05:44:18.577Z,99.30
2018-09-09T05:46:46.333Z,99.10
2018-09-09T05:49:14.105Z,99.20
2018-09-09T05:51:41.782Z,99.20
2018-09-09T05:54:10.340Z,99.20
2018-09-09T05:56:38.980Z,99.40
2018-09-09T05:59:06.953Z,99.20
2018-09-09T06:01:34.902Z,99.30
2018-09-09T06:04:03.641Z,99.10
2018-09-09T06:06:33.150Z,99.10
2018-09-09T06:09:01.754Z,99.10
2018-09-09T06:11:29.466Z,99.10
2018-09-09T06:13:57.221Z,98.90
2018-09-09T06:16:25.551Z,98.70
2018-09-09T06:18:54.657Z,98.70
2018-09-09T06:21:22.353Z,98.70
2018-09-09T06:23:50.142Z,98.60
2018-09-09T06:26:17.822Z,98.30
2018-09-09T06:28:45.606Z,98.00
2018-09-09T06:31:13.298Z,98.10
2018-09-09T06:33:41.069Z,97.90
2018-09-09T06:36:08.725Z,97.90
2018-09-09T06:38:36.506Z,97.50
2018-09-09T06:41:04.467Z,97.50
2018-09-09T06:43:32.427Z,97.40
2018-09-09T06:46:00.167Z,97.60
2018-09-09T06:48:27.869Z,97.20
2018-09-09T06:50:56.337Z,96.70
2018-09-09T06:53:24.018Z,96.80
2018-09-09T06:55:52.911Z,96.40
2018-09-09T06:58:20.596Z,96.40
2018-09-09T07:00:49.054Z,96.20
2018-09-09T07:03:16.741Z,96.10
2018-09-09T07:05:44.987Z,95.60
2018-09-09T07:08:12.739Z,95.30
2018-09-09T07:10:40.493Z,95.30
2018-09-09T07:13:08.128Z,94.80
2018-09-09T07:15:35.887Z,94.70
2018-09-09T07:18:03.585Z,94.60
2018-09-09T07:20:31.302Z,94.80
2018-09-09T07:22:59.046Z,95.40
2018-09-09T07:25:26.777Z,95.50
2018-09-09T07:27:55.341Z,95.20
2018-09-09T07:30:23.245Z,94.70
2018-09-09T07:32:54.874Z,94.50
2018-09-09T07:35:23.002Z,94.40
2018-09-09T07:37:50.902Z,94.20
2018-09-09T07:40:18.617Z,94.40
2018-09-09T07:42:46.317Z,93.90
2018-09-09T07:45:14.008Z,93.40
2018-09-09T07:47:41.702Z,92.90
2018-09-09T07:50:09.514Z,92.20
2018-09-09T07:52:44.499Z,91.70
2018-09-09T07:55:12.205Z,91.60
2018-09-09T07:57:39.873Z,91.60
2018-09-09T08:00:07.710Z,91.90
2018-09-09T08:02:35.450Z,90.40
2018-09-09T08:05:03.552Z,90.20
2018-09-09T08:07:31.220Z,90.20
2018-09-09T08:09:59.102Z,88.40
2018-09-09T08:12:26.838Z,86.90
2018-09-09T08:14:55.090Z,86.40
2018-09-09T08:17:23.522Z,84.40
2018-09-09T08:19:51.227Z,81.80
2018-09-09T08:22:18.946Z,81.40
2018-09-09T08:24:47.442Z,81.70
2018-09-09T08:27:15.755Z,80.40
2018-09-09T08:29:43.509Z,81.60
2018-09-09T08:32:11.210Z,83.20
2018-09-09T08:34:42.460Z,80.30
2018-09-09T08:37:10.382Z,81.10
2018-09-09T08:39:40.322Z,78.60
2018-09-09T08:42:08.050Z,78.60
2018-09-09T08:44:35.763Z,81.40
2018-09-09T08:47:03.594Z,80.00
2018-09-09T08:49:31.433Z,78.50
2018-09-09T08:51:59.451Z,78.70
2018-09-09T08:54:27.071Z,78.00
2018-09-09T08:56:54.769Z,77.30
2018-09-09T08:59:22.659Z,76.20
2018-09-09T09:01:50.446Z,75.70
2018-09-09T09:04:18.118Z,74.40
2018-09-09T09:06:45.830Z,73.70
2018-09-09T09:09:13.594Z,74.60
2018-09-09T09:11:41.326Z,73.60
2018-09-09T09:14:09.010Z,73.20
2018-09-09T09:16:36.753Z,73.10
2018-09-09T09:19:04.606Z,74.20
2018-09-09T09:21:32.291Z,73.70
2018-09-09T09:23:59.962Z,73.70
2018-09-09T09:26:27.686Z,74.20
2018-09-09T09:28:55.531Z,74.30
2018-09-09T09:31:23.283Z,73.70
2018-09-09T09:33:51.868Z,73.80
2018-09-09T09:36:19.884Z,74.30
2018-09-09T09:38:47.575Z,75.90
2018-09-09T09:41:15.290Z,76.60
2018-09-09T09:43:42.988Z,75.50
2018-09-09T09:46:10.674Z,74.90
2018-09-09T09:48:38.479Z,73.40
2018-09-09T09:51:06.188Z,73.10
2018-09-09T09:53:33.899Z,73.70
2018-09-09T09:56:01.754Z,72.80
2018-09-09T09:58:29.934Z,72.20
2018-09-09T10:01:00.063Z,72.80
2018-09-09T10:03:27.827Z,73.80
2018-09-09T10:05:55.567Z,74.30
2018-09-09T10:08:23.481Z,72.80
2018-09-09T10:10:52.422Z,72.40
2018-09-09T10:13:20.238Z,74.30
2018-09-09T10:15:47.934Z,72.60
2018-09-09T10:18:15.626Z,71.70
2018-09-09T10:20:43.385Z,71.60
2018-09-09T10:23:12.882Z,70.40
2018-09-09T10:25:40.827Z,69.90
2018-09-09T10:28:08.503Z,69.70
2018-09-09T10:30:36.217Z,69.80
2018-09-09T10:33:04.046Z,70.10
2018-09-09T10:35:32.162Z,70.30
2018-09-09T10:37:59.873Z,69.50
2018-09-09T10:40:28.406Z,68.80
2018-09-09T10:42:56.215Z,69.60
2018-09-09T10:45:23.886Z,67.40
2018-09-09T10:47:51.586Z,68.60
2018-09-09T10:50:19.324Z,67.90
2018-09-09T10:52:47.072Z,68.00
2018-09-09T10:55:14.797Z,66.40
2018-09-09T10:57:42.481Z,66.20
2018-09-09T11:00:10.195Z,65.00
2018-09-09T11:02:37.879Z,66.40
2018-09-09T11:05:06.129Z,65.10
2018-09-09T11:07:34.890Z,65.60
2018-09-09T11:10:03.559Z,66.70
2018-09-09T11:12:31.883Z,64.40
2018-09-09T11:15:01.654Z,65.50
2018-09-09T11:17:30.313Z,64.50
2018-09-09T11:19:58.528Z,64.20
2018-09-09T11:22:26.873Z,64.10
2018-09-09T11:24:54.746Z,64.60
2018-09-09T11:27:23.035Z,64.90
2018-09-09T11:29:50.741Z,65.00
2018-09-09T11:32:18.913Z,64.10
2018-09-09T11:34:46.636Z,63.30
2018-09-09T11:37:14.373Z,60.10
2018-09-09T11:39:42.111Z,59.30
2018-09-09T11:42:09.930Z,60.30
2018-09-09T11:44:37.666Z,58.80
2018-09-09T11:47:05.378Z,58.20
2018-09-09T11:49:33.166Z,58.90
2018-09-09T11:52:00.918Z,60.20
2018-09-09T11:54:28.657Z,59.90
2018-09-09T11:56:57.214Z,60.70
2018-09-09T11:59:24.935Z,59.90
2018-09-09T12:01:52.885Z,60.70
2018-09-09T12:04:20.562Z,60.60
2018-09-09T12:06:49.168Z,60.70
2018-09-09T12:09:16.858Z,60.00
2018-09-09T12:11:44.599Z,59.40
2018-09-09T12:14:12.346Z,59.50
2018-09-09T12:21:36.253Z,56.70
2018-09-09T12:24:03.958Z,57.20
2018-09-09T12:26:31.686Z,56.50
2018-09-09T12:28:59.394Z,56.40
2018-09-09T12:31:27.743Z,55.80
2018-09-09T12:33:55.912Z,55.60
2018-09-09T12:36:24.583Z,54.60
2018-09-09T12:38:52.293Z,55.40
2018-09-09T12:41:20.350Z,56.00
2018-09-09T12:43:54.430Z,56.40
2018-09-09T12:46:27.780Z,54.50
2018-09-09T12:49:02.245Z,54.20
2018-09-09T12:51:30.058Z,53.80
2018-09-09T12:53:57.854Z,52.10
2018-09-09T12:56:25.925Z,53.60
2018-09-09T12:58:53.629Z,53.40
2018-09-09T13:01:21.498Z,54.30
2018-09-09T13:03:49.441Z,52.90
2018-09-09T13:06:17.378Z,53.10
2018-09-09T13:08:45.095Z,53.10
2018-09-09T13:11:13.019Z,51.40
2018-09-09T13:13:40.741Z,51.30
2018-09-09T13:16:08.479Z,50.60
2018-09-09T13:18:36.170Z,49.50
2018-09-09T13:21:05.727Z,49.90
2018-09-09T13:23:33.458Z,49.50
2018-09-09T13:26:01.306Z,48.30
2018-09-09T13:28:29.088Z,47.30
2018-09-09T13:30:56.836Z,47.60
2018-09-09T13:33:25.112Z,46.70
2018-09-09T13:35:53.111Z,44.90
2018-09-09T13:38:20.837Z,43.80
2018-09-09T13:40:48.575Z,43.90
2018-09-09T13:43:16.978Z,45.20
2018-09-09T13:45:44.755Z,46.80
2018-09-09T13:48:12.709Z,46.80
2018-09-09T13:50:41.384Z,47.30
2018-09-09T13:53:09.104Z,47.10
2018-09-09T13:55:54.840Z,45.60
2018-09-09T13:58:44.854Z,45.70
2018-09-09T14:01:29.774Z,45.10
2018-09-09T14:03:57.605Z,42.20
2018-09-09T14:06:34.469Z,38.00
2018-09-09T14:09:02.254Z,35.80
2018-09-09T14:11:30.042Z,33.70
2018-09-09T14:13:57.805Z,33.60
2018-09-09T14:16:26.727Z,31.10
2018-09-09T14:18:54.436Z,30.10
2018-09-09T14:21:22.305Z,29.30
2018-09-09T14:23:50.587Z,29.60
2018-09-09T14:26:18.284Z,28.50
2018-09-09T14:28:46.979Z,26.60
2018-09-09T14:31:14.756Z,25.10
2018-09-09T14:33:42.464Z,25.20
2018-09-09T14:36:17.518Z,26.20
2018-09-09T14:38:46.673Z,26.80
2018-09-09T14:41:14.571Z,26.90
2018-09-09T14:43:42.294Z,27.40
2018-09-09T14:46:10.182Z,28.50
2018-09-09T14:48:37.829Z,29.30
2018-09-09T14:51:05.655Z,29.30
2018-09-09T14:53:34.768Z,29.00
2018-09-09T14:56:02.466Z,30.00
2018-09-09T14:58:30.252Z,29.30
2018-09-09T15:00:57.987Z,29.60
2018-09-09T15:03:25.718Z,30.70
2018-09-09T15:05:53.475Z,31.20
2018-09-09T15:08:21.207Z,31.60
2018-09-09T15:10:48.970Z,31.20
2018-09-09T15:13:17.277Z,32.10
2018-09-09T15:15:45.042Z,31.80
2018-09-09T15:18:13.127Z,32.90
2018-09-09T15:20:40.859Z,34.80
2018-09-09T15:23:14.247Z,35.90
2018-09-09T15:25:42.372Z,36.80
2018-09-09T15:28:10.248Z,38.00
2018-09-09T15:30:37.987Z,38.30
2018-09-09T15:33:05.829Z,38.60
2018-09-09T15:35:33.726Z,41.20
2018-09-09T15:38:01.629Z,41.20
2018-09-09T15:40:29.522Z,40.10
2018-09-09T15:42:57.207Z,40.70
2018-09-09T15:45:25.693Z,39.70
2018-09-09T15:47:53.370Z,39.50
2018-09-09T15:50:21.087Z,39.10
2018-09-09T15:52:48.825Z,37.60
2018-09-09T15:55:16.563Z,38.10
2018-09-09T15:57:44.228Z,38.60
2018-09-09T16:00:12.113Z,37.50
2018-09-09T16:02:39.723Z,38.30
2018-09-09T16:05:07.806Z,38.10
2018-09-09T16:07:35.553Z,37.50
2018-09-09T16:10:03.334Z,37.60
2018-09-09T16:12:31.014Z,39.50
2018-09-09T16:14:58.998Z,39.70
2018-09-09T16:17:26.701Z,38.60
2018-09-09T16:19:54.507Z,40.40
2018-09-09T16:22:22.227Z,41.20
2018-09-09T16:24:49.930Z,42.00
2018-09-09T16:27:40.953Z,43.40
2018-09-09T16:30:30.062Z,42.80
2018-09-09T16:32:57.734Z,43.30
2018-09-09T16:35:25.438Z,43.10
2018-09-09T16:37:53.110Z,42.50
2018-09-09T16:40:20.816Z,42.10
2018-09-09T16:42:48.719Z,43.90
2018-09-09T16:45:16.479Z,39.30
2018-09-09T16:47:44.110Z,39.30
2018-09-09T16:50:11.866Z,37.60
2018-09-09T16:52:44.436Z,36.60
2018-09-09T16:55:12.263Z,37.20
2018-09-09T16:57:40.128Z,38.40
2018-09-09T17:00:07.975Z,40.00
2018-09-09T17:02:40.584Z,39.20
2018-09-09T17:05:10.320Z,39.30
2018-09-09T17:07:38.075Z,40.60
2018-09-09T17:10:05.872Z,41.60
2018-09-09T17:12:33.546Z,43.10
2018-09-09T17:15:01.445Z,43.60
2018-09-09T17:17:29.066Z,44.40
2018-09-09T17:19:56.781Z,45.40
2018-09-09T17:22:24.454Z,49.10
2018-09-09T17:24:52.367Z,50.30
2018-09-09T17:27:20.017Z,51.80
2018-09-09T17:29:47.701Z,53.20
2018-09-09T17:32:15.475Z,54.30
2018-09-09T17:34:43.385Z,56.40
2018-09-09T17:37:11.082Z,57.10
2018-09-09T17:39:38.782Z,57.00
2018-09-09T17:42:06.481Z,58.90
2018-09-09T17:44:35.226Z,60.90
2018-09-09T17:47:02.948Z,61.90
2018-09-09T17:49:30.629Z,62.40
2018-09-09T17:51:58.328Z,63.60
2018-09-09T17:54:26.073Z,64.00
2018-09-09T17:56:53.758Z,63.50
2018-09-09T17:59:21.430Z,64.70
2018-09-09T18:01:49.126Z,66.40
2018-09-09T18:04:19.609Z,67.20
2018-09-09T18:06:47.318Z,66.70
2018-09-09T18:09:16.679Z,67.50
2018-09-09T18:11:47.193Z,69.10
2018-09-09T18:14:17.971Z,69.00
2018-09-09T18:16:45.642Z,69.10
2018-09-09T18:19:14.131Z,70.10
2018-09-09T18:21:42.543Z,71.40
2018-09-09T18:24:10.325Z,72.00
2018-09-09T18:26:38.022Z,71.80
2018-09-09T18:29:05.858Z,73.40
2018-09-09T18:31:33.541Z,74.40
2018-09-09T18:34:01.226Z,73.60
2018-09-09T18:36:29.797Z,75.10
2018-09-09T18:38:58.580Z,72.60
2018-09-09T18:41:28.687Z,73.90
2018-09-09T18:43:58.834Z,75.00
2018-09-09T18:46:28.026Z,76.40
2018-09-09T18:48:56.216Z,78.70
2018-09-09T18:51:24.298Z,77.00
2018-09-09T18:53:51.931Z,78.10
2018-09-09T18:56:20.055Z,79.60
2018-09-09T18:58:48.325Z,78.80
2018-09-09T19:01:16.974Z,79.00
2018-09-09T19:03:44.740Z,79.10
2018-09-09T19:06:12.463Z,78.70
2018-09-09T19:08:40.209Z,79.50
2018-09-09T19:11:08.753Z,79.20
2018-09-09T19:13:38.130Z,79.20
2018-09-09T19:16:06.588Z,81.30
2018-09-09T19:18:35.000Z,79.80
2018-09-09T19:21:05.533Z,80.30
2018-09-09T19:23:33.201Z,82.30
2018-09-09T19:26:00.822Z,81.60
2018-09-09T19:28:28.755Z,81.70
2018-09-09T19:30:56.409Z,82.00
2018-09-09T19:33:24.067Z,81.00
2018-09-09T19:35:52.330Z,82.10
2018-09-09T19:38:20.022Z,82.30
2018-09-09T19:40:47.721Z,83.00
2018-09-09T19:43:15.409Z,83.70
2018-09-09T19:45:43.141Z,84.00
2018-09-09T19:48:10.845Z,83.40
2018-09-09T19:50:38.618Z,84.70
2018-09-09T19:53:06.354Z,84.10
2018-09-09T19:55:34.273Z,84.20
2018-09-09T19:58:01.961Z,85.20
2018-09-09T20:00:29.767Z,84.60
2018-09-09T20:02:57.458Z,85.90
2018-09-09T20:05:29.725Z,85.30
2018-09-09T20:07:57.973Z,85.00
2018-09-09T20:10:25.643Z,86.10
2018-09-09T20:12:53.386Z,85.10
2018-09-09T20:15:21.034Z,86.20
2018-09-09T20:17:48.911Z,87.10
2018-09-09T20:20:16.558Z,87.10
2018-09-09T20:22:47.259Z,87.70
2018-09-09T20:25:14.946Z,87.10
2018-09-09T20:27:42.784Z,87.30
2018-09-09T20:30:14.320Z,87.80
2018-09-09T20:32:42.226Z,86.40
2018-09-09T20:35:11.379Z,87.50
2018-09-09T20:37:39.147Z,88.30
2018-09-09T20:40:06.909Z,87.60
2018-09-09T20:42:42.904Z,88.90
2018-09-09T20:45:10.937Z,89.30
2018-09-09T20:47:45.166Z,89.60
2018-09-09T20:50:13.459Z,90.10
2018-09-09T20:52:42.074Z,90.10
2018-09-09T20:55:10.111Z,90.40
2018-09-09T20:57:39.890Z,90.60
2018-09-09T21:00:08.651Z,90.40
2018-09-09T21:02:38.490Z,90.60
2018-09-09T21:05:06.367Z,90.60
2018-09-09T21:07:37.649Z,90.60
2018-09-09T21:10:11.140Z,90.70
2018-09-09T21:12:41.382Z,90.50
2018-09-09T21:15:10.879Z,90.60
2018-09-09T21:17:40.483Z,90.60
2018-09-09T21:20:10.302Z,90.60
2018-09-09T21:22:38.045Z,90.30
2018-09-09T21:25:07.542Z,90.60
2018-09-09T21:27:36.698Z,90.80
2018-09-09T21:30:04.619Z,91.00
2018-09-09T21:32:32.430Z,90.80
2018-09-09T21:35:00.231Z,90.90
2018-09-09T21:37:27.906Z,90.50
2018-09-09T21:39:55.677Z,90.80
2018-09-09T21:42:23.352Z,90.80
2018-09-09T21:44:51.030Z,90.70
2018-09-09T21:47:18.674Z,90.70
2018-09-09T21:49:46.585Z,90.60
2018-09-09T21:52:14.589Z,90.50
2018-09-09T21:54:42.689Z,90.50
2018-09-09T21:57:10.334Z,90.30
2018-09-09T21:59:38.069Z,90.40
2018-09-09T22:02:06.521Z,90.30
2018-09-09T22:04:35.047Z,90.40
2018-09-09T22:07:02.825Z,90.60
2018-09-09T22:09:30.491Z,90.70
2018-09-09T22:11:58.301Z,90.90
2018-09-09T22:14:26.012Z,91.10
2018-09-09T22:16:53.742Z,91.30
2018-09-09T22:19:21.470Z,91.50
2018-09-09T22:21:49.605Z,91.60
2018-09-09T22:24:18.531Z,91.60
2018-09-09T22:26:46.153Z,91.70
2018-09-09T22:29:14.047Z,91.70
2018-09-09T22:31:41.829Z,91.70
2018-09-09T22:34:09.497Z,91.70
2018-09-09T22:36:37.333Z,91.50
2018-09-09T22:39:06.322Z,91.40
2018-09-09T22:41:34.206Z,91.30
2018-09-09T22:44:02.069Z,91.30
2018-09-09T22:46:29.750Z,91.20
2018-09-09T22:48:57.417Z,91.10
2018-09-09T22:51:25.117Z,91.00
2018-09-09T22:53:52.969Z,91.10
2018-09-09T22:56:20.725Z,91.20
2018-09-09T22:58:48.573Z,91.10
2018-09-09T23:01:16.276Z,91.20
2018-09-09T23:03:43.955Z,91.20
2018-09-09T23:06:11.669Z,91.30
2018-09-09T23:08:39.309Z,91.40
2018-09-09T23:11:06.982Z,91.60
2018-09-09T23:13:34.750Z,91.70
2018-09-09T23:16:02.456Z,91.70
2018-09-09T23:18:30.288Z,92.00
2018-09-09T23:20:57.966Z,92.00
2018-09-09T23:23:25.582Z,92.10
2018-09-09T23:25:53.267Z,92.20
2018-09-09T23:28:20.897Z,92.20
2018-09-09T23:30:48.653Z,92.30
2018-09-09T23:33:16.325Z,92.30
2018-09-09T23:35:44.400Z,92.20
2018-09-09T23:38:12.084Z,92.20
2018-09-09T23:40:39.779Z,92.40
2018-09-09T23:43:07.511Z,92.50
2018-09-09T23:45:35.191Z,92.80
2018-09-09T23:48:02.893Z,93.10
2018-09-09T23:50:30.562Z,93.30
2018-09-09T23:52:58.197Z,93.00
2018-09-09T23:55:25.855Z,93.10
2018-09-09T23:57:54.095Z,93.30
